Time;durP1;ratioP1;P1;durP2;ratioP2;P2;SDS_P1;SDS_P2;PMS_P1;PMS_P2;Temp;Humidity;BMP_temperature;BMP_pressure;BME280_temperature;BME280_humidity;BME280_pressure;Samples;Min_cycle;Max_cycle;Signal;HPM_P1;HPM_P2
2021/03/14 00:00:17;;;;;;;5.57;1.38;;;6.40;99.90;;;;;;4153777;28;20092;-70
2021/03/14 00:02:18;;;;;;;6.82;1.60;;;6.40;99.90;;;;;;4156379;28;20109;-70
2021/03/14 00:04:19;;;;;;;4.10;1.30;;;6.40;99.90;;;;;;4158411;28;20033;-70
2021/03/14 00:06:19;;;;;;;6.63;1.20;;;6.40;99.90;;;;;;4145887;28;20054;-70
2021/03/14 00:08:23;;;;;;;5.25;1.30;;;6.30;99.90;;;;;;4153088;28;20026;-70
2021/03/14 00:10:24;;;;;;;3.00;1.08;;;6.40;99.90;;;;;;4156141;28;20034;-71
2021/03/14 00:12:25;;;;;;;4.00;1.50;;;6.30;99.90;;;;;;4157922;28;20034;-70
2021/03/14 00:14:26;;;;;;;6.70;1.15;;;6.20;99.90;;;;;;4155714;28;20683;-70
2021/03/14 00:16:27;;;;;;;3.97;1.75;;;6.30;99.90;;;;;;4129254;28;20038;-71
2021/03/14 00:18:35;;;;;;;8.00;1.73;;;6.20;99.90;;;;;;4161417;28;20120;-70
2021/03/14 00:20:37;;;;;;;5.00;1.70;;;6.20;99.90;;;;;;4148528;28;20858;-70
2021/03/14 00:22:38;;;;;;;2.42;1.20;;;6.20;99.90;;;;;;4158881;28;20390;-71
2021/03/14 00:24:39;;;;;;;3.88;1.30;;;6.30;99.90;;;;;;4154774;28;20033;-71
2021/03/14 00:26:41;;;;;;;4.07;1.45;;;6.20;99.90;;;;;;4155106;28;20102;-71
2021/03/14 00:28:42;;;;;;;3.70;1.38;;;6.30;99.90;;;;;;4159429;28;20041;-71
2021/03/14 00:30:43;;;;;;;5.35;1.83;;;6.20;99.90;;;;;;4158919;28;20394;-71
2021/03/14 00:32:44;;;;;;;4.78;1.55;;;6.20;99.90;;;;;;4158926;28;20045;-71
2021/03/14 00:34:45;;;;;;;5.03;1.65;;;6.20;99.90;;;;;;4157786;28;20510;-71
2021/03/14 00:36:46;;;;;;;6.90;1.55;;;6.20;99.90;;;;;;4159459;28;20057;-71
2021/03/14 00:38:47;;;;;;;4.13;1.23;;;6.20;99.90;;;;;;4150856;28;20482;-71
2021/03/14 00:40:47;;;;;;;4.82;1.92;;;6.20;99.90;;;;;;4159070;28;20620;-72
2021/03/14 00:42:49;;;;;;;3.58;1.63;;;6.30;99.90;;;;;;4153817;28;20100;-71
2021/03/14 00:44:50;;;;;;;5.23;1.63;;;6.30;99.90;;;;;;4148278;28;20389;-71
2021/03/14 00:46:54;;;;;;;6.15;1.40;;;6.30;99.90;;;;;;4149423;28;20033;-71
2021/03/14 00:48:55;;;;;;;4.55;1.55;;;6.30;99.90;;;;;;4154781;28;20809;-71
2021/03/14 00:50:56;;;;;;;8.13;1.70;;;6.30;99.90;;;;;;4155793;28;20815;-71
2021/03/14 00:52:56;;;;;;;6.38;2.20;;;6.30;99.90;;;;;;4154264;28;20109;-71
2021/03/14 00:54:57;;;;;;;8.48;1.88;;;6.30;99.90;;;;;;4158879;28;20687;-71
2021/03/14 00:56:57;;;;;;;6.00;1.58;;;6.30;99.90;;;;;;4158666;28;20043;-71
2021/03/14 00:58:58;;;;;;;4.55;1.50;;;6.30;99.90;;;;;;4155833;28;20095;-71
2021/03/14 01:00:59;;;;;;;7.95;2.13;;;6.30;99.90;;;;;;4152464;28;20057;-71
2021/03/14 01:02:59;;;;;;;6.90;2.40;;;6.30;99.90;;;;;;4158521;28;20124;-71
2021/03/14 01:05:00;;;;;;;5.28;1.65;;;6.30;99.90;;;;;;4158857;28;20042;-71
2021/03/14 01:07:01;;;;;;;5.97;1.50;;;6.30;99.90;;;;;;4160009;28;20053;-71
2021/03/14 01:09:02;;;;;;;6.03;1.77;;;6.30;99.90;;;;;;4151959;28;20033;-71
2021/03/14 01:11:03;;;;;;;5.03;1.60;;;6.20;99.90;;;;;;4149105;28;20045;-71
2021/03/14 01:13:04;;;;;;;9.43;1.88;;;6.30;99.90;;;;;;4148377;28;20410;-71
2021/03/14 01:15:14;;;;;;;5.90;1.88;;;6.30;99.90;;;;;;4158963;28;20398;-71
2021/03/14 01:17:14;;;;;;;6.75;1.67;;;6.30;99.90;;;;;;4159603;28;20121;-71
2021/03/14 01:19:15;;;;;;;7.20;2.35;;;6.30;99.90;;;;;;4166840;28;20662;-71
2021/03/14 01:21:16;;;;;;;5.82;1.73;;;6.30;99.90;;;;;;4157534;28;20460;-71
2021/03/14 01:23:16;;;;;;;4.70;1.65;;;6.30;99.90;;;;;;4158007;28;20033;-71
2021/03/14 01:25:17;;;;;;;4.53;1.85;;;6.30;99.90;;;;;;4160268;28;20032;-71
2021/03/14 01:27:18;;;;;;;3.70;1.48;;;6.30;99.90;;;;;;4160155;28;20030;-71
2021/03/14 01:29:19;;;;;;;6.47;1.73;;;6.30;99.90;;;;;;4159794;28;20365;-71
2021/03/14 01:31:19;;;;;;;8.88;2.17;;;6.30;99.90;;;;;;4160286;28;20057;-72
2021/03/14 01:33:22;;;;;;;6.10;1.52;;;6.30;99.90;;;;;;4157735;28;20078;-71
2021/03/14 01:35:23;;;;;;;6.68;1.73;;;6.30;99.90;;;;;;4158315;28;20092;-71
2021/03/14 01:37:24;;;;;;;4.68;1.70;;;6.30;99.90;;;;;;4158042;28;20094;-71
2021/03/14 01:39:25;;;;;;;8.02;1.88;;;6.30;99.90;;;;;;4154871;28;20034;-71
2021/03/14 01:41:25;;;;;;;6.47;2.00;;;6.30;99.90;;;;;;4155277;28;20025;-71
2021/03/14 01:43:29;;;;;;;7.80;2.10;;;6.30;99.90;;;;;;4147155;28;20548;-71
2021/03/14 01:45:30;;;;;;;7.57;1.90;;;6.30;99.90;;;;;;4157576;28;20057;-71
2021/03/14 01:47:35;;;;;;;8.75;2.10;;;6.30;99.90;;;;;;4159721;28;20037;-71
2021/03/14 01:49:35;;;;;;;5.45;1.65;;;6.20;99.90;;;;;;4153695;28;20390;-71
2021/03/14 01:51:36;;;;;;;6.97;1.90;;;6.30;99.90;;;;;;4158695;28;20045;-71
2021/03/14 01:53:37;;;;;;;6.45;2.38;;;6.20;99.90;;;;;;4156503;28;20064;-71
2021/03/14 01:55:38;;;;;;;7.15;2.50;;;6.30;99.90;;;;;;4158403;28;20588;-71
2021/03/14 01:57:38;;;;;;;8.60;2.25;;;6.30;99.90;;;;;;4158047;28;20053;-71
2021/03/14 01:59:44;;;;;;;7.43;2.42;;;6.20;99.90;;;;;;4151755;28;20036;-71
2021/03/14 02:01:45;;;;;;;7.85;2.03;;;6.20;99.90;;;;;;4159763;28;20029;-71
2021/03/14 02:03:46;;;;;;;8.73;2.30;;;6.20;99.90;;;;;;4152707;28;20586;-71
2021/03/14 02:05:46;;;;;;;7.00;1.92;;;6.20;99.90;;;;;;4158514;28;20108;-71
2021/03/14 02:07:50;;;;;;;7.03;2.17;;;6.30;99.90;;;;;;4156381;28;20041;-71
2021/03/14 02:09:51;;;;;;;7.70;2.50;;;6.20;99.90;;;;;;4158699;28;20505;-71
2021/03/14 02:11:56;;;;;;;7.45;2.65;;;6.30;99.90;;;;;;4157110;28;20022;-71
2021/03/14 02:14:00;;;;;;;6.47;2.58;;;6.20;99.90;;;;;;4157729;28;20669;-71
2021/03/14 02:16:14;;;;;;;8.63;2.58;;;6.20;99.90;;;;;;4158453;28;20034;-71
2021/03/14 02:18:16;;;;;;;5.90;2.20;;;6.20;99.90;;;;;;4150742;28;20536;-71
2021/03/14 02:20:25;;;;;;;10.32;2.58;;;6.20;99.90;;;;;;4156918;28;20036;-71
2021/03/14 02:22:26;;;;;;;9.63;2.53;;;6.20;99.90;;;;;;4158693;28;20393;-71
2021/03/14 02:24:41;;;;;;;9.38;2.88;;;6.30;99.90;;;;;;4154867;28;20093;-71
2021/03/14 02:26:47;;;;;;;9.00;2.50;;;6.20;99.90;;;;;;4154207;28;20033;-71
2021/03/14 02:28:48;;;;;;;8.93;2.13;;;6.30;99.90;;;;;;4159518;28;20091;-71
2021/03/14 02:30:49;;;;;;;8.35;2.72;;;6.30;99.90;;;;;;4158154;28;20095;-71
2021/03/14 02:32:53;;;;;;;8.15;2.47;;;6.30;99.90;;;;;;4160553;28;20067;-71
2021/03/14 02:34:58;;;;;;;8.57;2.03;;;6.20;99.90;;;;;;4159910;28;20030;-71
2021/03/14 02:37:00;;;;;;;6.90;2.13;;;6.30;99.90;;;;;;4161138;28;20033;-71
2021/03/14 02:39:02;;;;;;;7.45;2.20;;;6.30;99.90;;;;;;4157648;28;20527;-71
2021/03/14 02:41:05;;;;;;;5.85;1.92;;;6.20;99.90;;;;;;4158547;28;20069;-71
2021/03/14 02:43:06;;;;;;;;;;;6.30;99.90;;;;;;4157664;28;20056;-72
2021/03/14 02:45:10;;;;;;;6.15;2.55;;;6.30;99.90;;;;;;4157768;28;19952;-71
2021/03/14 02:47:11;;;;;;;10.95;2.97;;;6.20;99.90;;;;;;4160630;28;20040;-71
2021/03/14 02:49:12;;;;;;;7.38;2.22;;;6.20;99.90;;;;;;4144073;28;20409;-71
2021/03/14 02:51:14;;;;;;;8.02;2.50;;;6.20;99.90;;;;;;4157026;28;20409;-71
2021/03/14 02:53:20;;;;;;;8.18;2.65;;;6.20;99.90;;;;;;4158171;28;20033;-71
2021/03/14 02:55:23;;;;;;;7.90;2.30;;;6.20;99.90;;;;;;4156026;28;20064;-71
2021/03/14 02:57:24;;;;;;;;;;;6.20;99.90;;;;;;4156602;28;20063;-71
2021/03/14 02:59:25;;;;;;;5.75;2.38;;;6.10;99.90;;;;;;4148809;28;19924;-71
2021/03/14 03:01:26;;;;;;;12.57;2.33;;;6.20;99.90;;;;;;4159116;28;20484;-71
2021/03/14 03:03:27;;;;;;;6.78;2.20;;;6.20;99.90;;;;;;4160766;28;20038;-71
2021/03/14 03:05:29;;;;;;;11.75;2.53;;;6.10;99.90;;;;;;4155174;28;20038;-71
2021/03/14 03:07:29;;;;;;;9.75;2.45;;;6.10;99.90;;;;;;4157155;28;20038;-71
2021/03/14 03:09:30;;;;;;;7.93;2.20;;;6.10;99.90;;;;;;4158898;28;20050;-71
2021/03/14 03:11:31;;;;;;;6.88;2.22;;;6.00;99.90;;;;;;4158405;28;20138;-71
2021/03/14 03:13:34;;;;;;;9.35;2.63;;;6.00;99.90;;;;;;4162043;28;20048;-71
2021/03/14 03:15:35;;;;;;;9.00;2.53;;;6.00;99.90;;;;;;4157999;28;20516;-71
2021/03/14 03:17:38;;;;;;;7.68;2.13;;;6.00;99.90;;;;;;4151100;28;20421;-71
2021/03/14 03:19:40;;;;;;;8.05;2.00;;;6.00;99.90;;;;;;4159526;28;20037;-71
2021/03/14 03:21:42;;;;;;;8.32;2.33;;;5.90;99.90;;;;;;4159308;28;20037;-71
2021/03/14 03:23:42;;;;;;;11.85;2.08;;;6.00;99.90;;;;;;4158959;28;20057;-71
2021/03/14 03:25:43;;;;;;;9.98;2.30;;;6.00;99.90;;;;;;4142811;28;20031;-71
2021/03/14 03:27:44;;;;;;;8.32;2.75;;;6.00;99.90;;;;;;4153405;28;20773;-71
2021/03/14 03:29:45;;;;;;;6.68;1.88;;;6.00;99.90;;;;;;4147567;28;20038;-71
2021/03/14 03:31:47;;;;;;;7.72;2.20;;;5.90;99.90;;;;;;4160952;28;20086;-71
2021/03/14 03:33:47;;;;;;;7.10;2.25;;;6.00;99.90;;;;;;4161807;28;20092;-71
2021/03/14 03:35:48;;;;;;;12.05;2.63;;;6.00;99.90;;;;;;4161475;28;20478;-71
2021/03/14 03:37:49;;;;;;;4.15;1.98;;;6.00;99.90;;;;;;4160070;28;20037;-71
2021/03/14 03:39:50;;;;;;;7.25;2.50;;;6.00;99.90;;;;;;4159627;28;20524;-72
2021/03/14 03:41:58;;;;;;;10.20;2.58;;;5.90;99.90;;;;;;4153123;28;20102;-71
2021/03/14 03:44:00;;;;;;;6.75;1.98;;;5.90;99.90;;;;;;4159503;28;20102;-71
2021/03/14 03:46:08;;;;;;;11.13;2.17;;;6.00;99.90;;;;;;4157961;28;20095;-71
2021/03/14 03:48:13;;;;;;;7.28;1.83;;;6.00;99.90;;;;;;4155100;28;20437;-71
2021/03/14 03:50:16;;;;;;;9.63;2.78;;;6.00;99.90;;;;;;4160543;28;20466;-71
2021/03/14 03:52:19;;;;;;;7.88;2.05;;;6.00;99.90;;;;;;4156380;28;20438;-71
2021/03/14 03:54:20;;;;;;;;;;;5.90;99.90;;;;;;4156603;28;20388;-71
2021/03/14 03:56:22;;;;;;;10.38;1.98;;;6.00;99.90;;;;;;4154384;28;19913;-71
2021/03/14 03:58:24;;;;;;;6.63;2.05;;;6.00;99.90;;;;;;4156616;28;20037;-71
2021/03/14 04:00:24;;;;;;;6.72;2.13;;;5.90;99.90;;;;;;4158510;28;20033;-71
2021/03/14 04:02:25;;;;;;;12.00;2.88;;;6.00;99.90;;;;;;4141783;28;20037;-71
2021/03/14 04:04:27;;;;;;;5.03;2.10;;;6.00;99.90;;;;;;4160855;28;20021;-71
2021/03/14 04:06:29;;;;;;;9.20;2.67;;;6.00;99.90;;;;;;4160851;28;20035;-71
2021/03/14 04:08:30;;;;;;;11.52;2.35;;;6.00;99.90;;;;;;4159513;28;20095;-71
2021/03/14 04:10:32;;;;;;;7.20;2.17;;;6.00;99.90;;;;;;4160744;28;20079;-71
2021/03/14 04:12:34;;;;;;;8.50;2.38;;;6.00;99.90;;;;;;4152319;28;20029;-71
2021/03/14 04:14:36;;;;;;;8.38;2.40;;;6.00;99.90;;;;;;4156206;28;20037;-71
2021/03/14 04:16:38;;;;;;;9.45;2.00;;;6.00;99.90;;;;;;4160844;28;20034;-71
2021/03/14 04:18:40;;;;;;;8.80;2.45;;;6.00;99.90;;;;;;4161062;28;20042;-71
2021/03/14 04:20:41;;;;;;;5.38;2.00;;;6.00;99.90;;;;;;4142360;28;20064;-71
2021/03/14 04:23:05;;;;;;;11.93;3.10;;;6.00;99.90;;;;;;4159339;28;20034;-71
2021/03/14 04:25:07;;;;;;;6.10;1.83;;;6.00;99.90;;;;;;4160084;28;20038;-71
2021/03/14 04:27:09;;;;;;;13.93;3.10;;;6.00;99.90;;;;;;4155751;28;20437;-71
2021/03/14 04:29:11;;;;;;;11.00;2.38;;;6.10;99.90;;;;;;4155888;28;20029;-71
2021/03/14 04:31:12;;;;;;;10.45;2.95;;;6.00;99.90;;;;;;4152113;28;20489;-71
2021/03/14 04:33:14;;;;;;;7.65;2.38;;;6.00;99.90;;;;;;4159811;28;20029;-71
2021/03/14 04:35:16;;;;;;;5.88;2.35;;;6.00;99.90;;;;;;4160989;28;20037;-71
2021/03/14 04:37:17;;;;;;;13.48;2.88;;;6.00;99.90;;;;;;4158171;28;20060;-71
2021/03/14 04:39:19;;;;;;;13.15;2.60;;;6.00;99.90;;;;;;4160277;28;20037;-71
2021/03/14 04:41:21;;;;;;;10.65;2.97;;;6.00;99.90;;;;;;4158928;28;20033;-71
2021/03/14 04:43:23;;;;;;;9.13;2.38;;;6.00;99.90;;;;;;4158723;28;20124;-71
2021/03/14 04:45:25;;;;;;;10.85;2.95;;;6.00;99.90;;;;;;4158935;28;20037;-71
2021/03/14 04:47:25;;;;;;;5.90;2.37;;;6.00;99.90;;;;;;4153202;28;20541;-71
2021/03/14 04:49:26;;;;;;;7.55;2.60;;;6.00;99.90;;;;;;4156411;28;20038;-72
2021/03/14 04:51:29;;;;;;;11.00;2.33;;;6.00;99.90;;;;;;4158972;28;20115;-71
2021/03/14 04:53:31;;;;;;;7.57;2.63;;;6.00;99.90;;;;;;4158810;28;20053;-71
2021/03/14 04:55:33;;;;;;;5.93;2.45;;;6.00;99.90;;;;;;4159714;28;20095;-71
2021/03/14 04:57:37;;;;;;;8.13;2.47;;;6.00;99.90;;;;;;4158067;28;20091;-71
2021/03/14 04:59:39;;;;;;;7.10;2.60;;;6.00;99.90;;;;;;4151946;28;20080;-71
2021/03/14 05:01:43;;;;;;;7.67;2.80;;;6.00;99.90;;;;;;4157716;28;20092;-71
2021/03/14 05:03:45;;;;;;;8.70;2.65;;;6.00;99.90;;;;;;4154012;28;20040;-71
2021/03/14 05:05:46;;;;;;;10.90;2.63;;;6.00;99.90;;;;;;4160262;28;20029;-71
2021/03/14 05:07:48;;;;;;;7.50;2.47;;;6.00;99.90;;;;;;4151972;28;20040;-71
2021/03/14 05:09:49;;;;;;;6.80;2.30;;;6.00;99.90;;;;;;4159290;28;20029;-71
2021/03/14 05:11:52;;;;;;;10.27;2.85;;;6.00;99.90;;;;;;4141185;28;20064;-71
2021/03/14 05:13:53;;;;;;;12.05;2.70;;;6.00;99.90;;;;;;4155359;28;20034;-71
2021/03/14 05:15:54;;;;;;;11.95;2.75;;;6.00;99.90;;;;;;4150794;28;20033;-71
2021/03/14 05:17:55;;;;;;;9.43;2.65;;;5.90;99.90;;;;;;4152966;28;20068;-71
2021/03/14 05:19:56;;;;;;;6.03;2.17;;;5.90;99.90;;;;;;4151744;28;20029;-71
2021/03/14 05:22:00;;;;;;;5.78;1.90;;;6.00;99.90;;;;;;4157836;28;20072;-72
2021/03/14 05:24:04;;;;;;;5.93;2.10;;;5.90;99.90;;;;;;4159730;28;20489;-71
2021/03/14 05:26:08;;;;;;;10.55;2.20;;;6.00;99.90;;;;;;4158465;28;20037;-71
2021/03/14 05:28:12;;;;;;;11.32;3.13;;;6.00;99.90;;;;;;4150276;28;20041;-71
2021/03/14 05:30:13;;;;;;;13.90;2.88;;;5.90;99.90;;;;;;4159356;28;20037;-71
2021/03/14 05:32:13;;;;;;;11.88;2.75;;;5.90;99.90;;;;;;4159134;28;20030;-71
2021/03/14 05:34:16;;;;;;;7.60;2.13;;;5.80;99.90;;;;;;4158188;28;20737;-71
2021/03/14 05:36:17;;;;;;;8.75;2.45;;;5.80;99.90;;;;;;4159605;28;20034;-71
2021/03/14 05:38:17;;;;;;;7.28;2.20;;;5.80;99.90;;;;;;4157672;28;20037;-71
2021/03/14 05:40:19;;;;;;;9.00;2.92;;;5.80;99.90;;;;;;4151217;28;20080;-71
2021/03/14 05:42:20;;;;;;;9.45;2.35;;;5.70;99.90;;;;;;4155157;28;20026;-71
2021/03/14 05:44:21;;;;;;;9.18;2.60;;;5.70;99.90;;;;;;4157004;28;20049;-72
2021/03/14 05:46:22;;;;;;;6.88;1.90;;;5.60;99.90;;;;;;4159667;28;20033;-71
2021/03/14 05:48:23;;;;;;;6.70;1.90;;;5.60;99.90;;;;;;4157823;28;20036;-71
2021/03/14 05:50:27;;;;;;;9.38;2.65;;;5.60;99.90;;;;;;4152193;28;20055;-71
2021/03/14 05:52:28;;;;;;;10.48;2.83;;;5.70;99.90;;;;;;4157354;28;20052;-71
2021/03/14 05:54:30;;;;;;;8.45;2.00;;;5.60;99.90;;;;;;4151204;28;20048;-71
2021/03/14 05:56:32;;;;;;;12.75;2.50;;;5.60;99.90;;;;;;4147714;28;20049;-71
2021/03/14 05:58:35;;;;;;;10.40;2.38;;;5.60;99.90;;;;;;4154523;28;20481;-71
2021/03/14 06:00:35;;;;;;;;;;;5.60;99.90;;;;;;4151550;28;20033;-71
2021/03/14 06:02:39;;;;;;;7.30;2.40;;;5.50;99.90;;;;;;4155973;28;19959;-71
2021/03/14 06:04:39;;;;;;;11.85;2.83;;;5.60;99.90;;;;;;4151647;28;20120;-71
2021/03/14 06:06:41;;;;;;;7.07;2.50;;;5.50;99.90;;;;;;4156749;28;20057;-71
2021/03/14 06:08:43;;;;;;;5.43;1.90;;;5.50;99.90;;;;;;4158779;28;20038;-71
2021/03/14 06:10:43;;;;;;;9.77;2.33;;;5.50;99.90;;;;;;4159090;28;20645;-71
2021/03/14 06:12:45;;;;;;;5.05;1.98;;;5.50;99.90;;;;;;4158562;28;20029;-71
2021/03/14 06:14:46;;;;;;;11.52;1.92;;;5.60;99.90;;;;;;4158646;28;20025;-71
2021/03/14 06:16:46;;;;;;;11.48;2.42;;;5.60;99.90;;;;;;4158445;28;20064;-71
2021/03/14 06:18:54;;;;;;;11.35;2.05;;;5.60;99.90;;;;;;4158579;28;20111;-71
2021/03/14 06:20:55;;;;;;;7.65;2.03;;;5.60;99.90;;;;;;4155449;28;20034;-71
2021/03/14 06:23:08;;;;;;;12.65;3.10;;;5.60;99.90;;;;;;4146480;28;20034;-71
2021/03/14 06:25:25;;;;;;;11.75;4.43;;;5.60;99.90;;;;;;4153703;28;20050;-71
2021/03/14 06:27:36;;;;;;;12.88;2.90;;;5.60;99.90;;;;;;4154230;28;20099;-71
2021/03/14 06:29:40;;;;;;;9.93;2.50;;;5.60;99.90;;;;;;4150437;28;20092;-71
2021/03/14 06:31:44;;;;;;;5.82;2.03;;;5.60;99.90;;;;;;4158842;28;20052;-71
2021/03/14 06:33:45;;;;;;;8.88;2.30;;;5.60;99.90;;;;;;4152367;28;20091;-71
2021/03/14 06:35:48;;;;;;;10.13;2.38;;;5.60;99.90;;;;;;4153742;28;20042;-71
2021/03/14 06:38:20;;;;;;;8.60;2.50;;;5.60;99.90;;;;;;4126582;28;20096;-71
2021/03/14 06:40:21;;;;;;;8.32;2.30;;;5.60;99.90;;;;;;4158316;28;20105;-71
2021/03/14 06:42:36;;;;;;;9.30;2.60;;;5.60;99.90;;;;;;4157829;28;20112;-71
2021/03/14 06:44:38;;;;;;;7.43;2.00;;;5.60;99.90;;;;;;4148385;28;20026;-71
2021/03/14 06:46:39;;;;;;;8.77;2.30;;;5.70;99.90;;;;;;4158573;28;20033;-71
2021/03/14 06:48:40;;;;;;;9.38;2.38;;;5.70;99.90;;;;;;4158292;28;20117;-71
2021/03/14 06:50:42;;;;;;;9.15;2.45;;;5.70;99.90;;;;;;4158555;28;20026;-71
2021/03/14 06:53:09;;;;;;;8.73;2.83;;;5.80;99.90;;;;;;4151022;28;20038;-71
2021/03/14 06:55:25;;;;;;;8.50;2.28;;;5.80;99.90;;;;;;4154124;28;20030;-71
2021/03/14 06:57:26;;;;;;;13.23;2.40;;;5.70;99.90;;;;;;4158040;28;20100;-71
2021/03/14 06:59:30;;;;;;;8.70;2.30;;;5.70;99.90;;;;;;4156624;28;20112;-71
2021/03/14 07:01:31;;;;;;;8.98;2.55;;;5.60;99.90;;;;;;4154069;28;20049;-72
2021/03/14 07:03:32;;;;;;;8.43;2.17;;;5.70;99.90;;;;;;4155740;28;20045;-72
2021/03/14 07:05:32;;;;;;;7.85;2.78;;;5.70;99.90;;;;;;4156976;28;20080;-72
2021/03/14 07:07:39;;;;;;;9.48;2.17;;;5.70;99.90;;;;;;4150886;28;20045;-72
2021/03/14 07:09:40;;;;;;;13.13;2.72;;;5.60;99.90;;;;;;4155225;28;20037;-72
2021/03/14 07:11:46;;;;;;;6.32;2.63;;;5.60;99.90;;;;;;4153750;28;20128;-72
2021/03/14 07:13:51;;;;;;;7.97;3.30;;;5.60;99.90;;;;;;4159144;28;20083;-71
2021/03/14 07:15:52;;;;;;;8.05;2.75;;;5.50;99.90;;;;;;4160152;28;20044;-72
2021/03/14 07:17:58;;;;;;;6.88;2.72;;;5.50;99.90;;;;;;4158542;28;20045;-71
2021/03/14 07:20:14;;;;;;;8.55;2.47;;;5.40;99.90;;;;;;4157236;28;20124;-72
2021/03/14 07:22:18;;;;;;;7.90;2.30;;;5.40;99.90;;;;;;4189142;28;20033;-71
2021/03/14 07:24:30;;;;;;;7.82;2.30;;;5.40;99.90;;;;;;4156114;28;20084;-71
2021/03/14 07:26:41;;;;;;;7.40;2.55;;;5.40;99.90;;;;;;4161249;28;20402;-74
2021/03/14 07:28:42;;;;;;;8.20;2.75;;;5.40;99.90;;;;;;4146706;28;20069;-72
2021/03/14 07:30:43;;;;;;;7.43;2.58;;;5.40;99.90;;;;;;4152175;28;20402;-71
2021/03/14 07:32:46;;;;;;;9.90;3.08;;;5.40;99.90;;;;;;4153351;28;20088;-71
2021/03/14 07:34:48;;;;;;;7.82;2.75;;;5.40;99.90;;;;;;4159032;28;20030;-71
2021/03/14 07:36:49;;;;;;;7.95;2.60;;;5.30;99.90;;;;;;4157395;28;20040;-69
2021/03/14 07:38:52;;;;;;;8.52;2.08;;;5.30;99.90;;;;;;4183542;28;20044;-69
2021/03/14 07:40:54;;;;;;;3.73;2.00;;;5.30;99.90;;;;;;4135719;28;20034;-69
2021/03/14 07:43:00;;;;;;;9.98;2.63;;;5.30;99.90;;;;;;4115556;28;20296;-69
2021/03/14 07:45:03;;;;;;;7.75;2.58;;;5.20;99.90;;;;;;4158412;28;20112;-69
2021/03/14 07:47:04;;;;;;;9.80;2.80;;;5.20;99.90;;;;;;4157616;28;20045;-69
2021/03/14 07:49:05;;;;;;;9.80;3.35;;;5.20;99.90;;;;;;4158127;28;20116;-69
2021/03/14 07:51:06;;;;;;;12.38;3.88;;;5.10;99.90;;;;;;4160508;28;20038;-69
2021/03/14 07:53:09;;;;;;;10.68;3.20;;;5.20;99.90;;;;;;4159437;28;20090;-69
2021/03/14 07:55:17;;;;;;;13.95;3.88;;;5.20;99.90;;;;;;4157986;28;20030;-69
2021/03/14 07:57:22;;;;;;;8.48;3.10;;;5.20;99.90;;;;;;4156739;28;20123;-69
2021/03/14 07:59:27;;;;;;;9.45;2.92;;;5.20;99.90;;;;;;4157435;28;20039;-69
2021/03/14 08:01:31;;;;;;;7.40;2.35;;;5.20;99.90;;;;;;4157870;28;20037;-69
2021/03/14 08:03:38;;;;;;;11.55;3.25;;;5.30;99.90;;;;;;4158884;28;20106;-69
2021/03/14 08:05:39;;;;;;;11.10;2.85;;;5.30;99.90;;;;;;4157366;28;20394;-69
2021/03/14 08:07:41;;;;;;;9.38;3.05;;;5.30;99.90;;;;;;4152977;28;20110;-69
2021/03/14 08:09:49;;;;;;;;;;;5.20;99.90;;;;;;4157568;28;20509;-69
2021/03/14 08:12:46;;;;;;;8.45;2.78;;;5.20;99.90;;;;;;4156564;28;19915;-69
2021/03/14 08:14:56;;;;;;;12.20;4.18;;;5.20;99.90;;;;;;4126159;28;20049;-69
2021/03/14 08:17:17;;;;;;;9.40;3.03;;;5.20;99.90;;;;;;4140391;28;20025;-69
2021/03/14 08:19:18;;;;;;;8.00;3.28;;;5.20;99.90;;;;;;4158488;28;20053;-69
2021/03/14 08:21:21;;;;;;;8.43;3.55;;;5.20;99.90;;;;;;4158338;28;20099;-69
2021/03/14 08:23:40;;;;;;;12.65;4.68;;;5.20;99.90;;;;;;4159564;28;20044;-69
2021/03/14 08:25:43;;;;;;;11.35;3.97;;;5.20;99.90;;;;;;4154779;28;20062;-69
2021/03/14 08:27:46;;;;;;;11.45;3.83;;;5.30;99.90;;;;;;4159793;28;20437;-69
2021/03/14 08:29:46;;;;;;;8.32;2.90;;;5.30;99.90;;;;;;4154840;28;20048;-69
2021/03/14 08:31:49;;;;;;;10.68;4.03;;;5.30;99.90;;;;;;4155686;28;20029;-69
2021/03/14 08:33:49;;;;;;;;;;;5.30;99.90;;;;;;4157875;28;20037;-69
2021/03/14 08:35:57;;;;;;;6.97;3.15;;;5.30;99.90;;;;;;4158199;28;19983;-69
2021/03/14 08:38:33;;;;;;;14.27;3.97;;;5.30;99.90;;;;;;4157742;28;20021;-69
2021/03/14 08:40:34;;;;;;;6.93;3.20;;;5.40;99.90;;;;;;4124820;28;20720;-69
2021/03/14 08:42:55;;;;;;;8.10;3.70;;;5.40;99.90;;;;;;4156876;28;20101;-69
2021/03/14 08:44:56;;;;;;;10.23;4.00;;;5.40;99.90;;;;;;4178938;28;20066;-69
2021/03/14 08:47:01;;;;;;;11.05;4.50;;;5.40;99.90;;;;;;4159106;28;20482;-69
2021/03/14 08:49:02;;;;;;;11.07;4.57;;;5.50;99.90;;;;;;4157927;28;20033;-69
2021/03/14 08:51:08;;;;;;;6.80;3.60;;;5.50;99.90;;;;;;4153412;28;20116;-69
2021/03/14 08:53:08;;;;;;;10.50;3.88;;;5.50;99.90;;;;;;4157280;28;20044;-69
2021/03/14 08:55:10;;;;;;;10.75;4.10;;;5.60;99.90;;;;;;4159062;28;20029;-69
2021/03/14 08:57:13;;;;;;;9.63;4.80;;;5.70;99.90;;;;;;4158156;28;20037;-69
2021/03/14 08:59:14;;;;;;;10.88;5.57;;;5.80;99.90;;;;;;4158301;28;20060;-69
2021/03/14 09:01:15;;;;;;;10.60;5.15;;;5.80;99.90;;;;;;4156334;28;20041;-69
2021/03/14 09:03:16;;;;;;;13.05;4.63;;;5.80;99.90;;;;;;4156969;28;20171;-69
2021/03/14 09:05:22;;;;;;;11.57;5.22;;;5.80;99.90;;;;;;4158047;28;20033;-69
2021/03/14 09:07:22;;;;;;;11.48;4.65;;;5.80;99.90;;;;;;4151611;28;20413;-69
2021/03/14 09:09:23;;;;;;;9.02;4.60;;;5.80;99.90;;;;;;4158877;28;20087;-69
2021/03/14 09:11:49;;;;;;;9.70;4.15;;;5.90;99.90;;;;;;4158883;28;20551;-69
2021/03/14 09:13:50;;;;;;;12.45;4.15;;;5.90;99.90;;;;;;4157180;28;20421;-69
2021/03/14 09:15:50;;;;;;;15.93;6.18;;;6.00;99.90;;;;;;4159752;28;20375;-69
2021/03/14 09:17:51;;;;;;;15.63;7.07;;;6.00;99.90;;;;;;4156879;28;20034;-69
2021/03/14 09:19:54;;;;;;;12.07;4.68;;;6.00;99.90;;;;;;4156621;28;20037;-69
2021/03/14 09:21:57;;;;;;;14.55;5.97;;;6.00;99.90;;;;;;4151219;28;20096;-69
2021/03/14 09:23:58;;;;;;;19.23;5.88;;;6.00;99.90;;;;;;4158381;28;20389;-69
2021/03/14 09:25:59;;;;;;;9.57;4.53;;;5.90;99.90;;;;;;4159415;28;20033;-69
2021/03/14 09:28:00;;;;;;;9.30;4.63;;;5.90;99.90;;;;;;4159522;28;20025;-69
2021/03/14 09:30:07;;;;;;;14.57;4.45;;;6.00;99.90;;;;;;4157145;28;20037;-69
2021/03/14 09:32:18;;;;;;;11.63;5.82;;;5.90;99.90;;;;;;4157651;28;20060;-69
2021/03/14 09:34:19;;;;;;;12.88;6.13;;;6.00;99.90;;;;;;4155155;28;20120;-69
2021/03/14 09:36:20;;;;;;;10.88;4.43;;;5.90;99.90;;;;;;4139255;28;20439;-69
2021/03/14 09:38:21;;;;;;;9.15;3.95;;;6.00;99.90;;;;;;4158531;28;20723;-69
2021/03/14 09:40:34;;;;;;;13.07;4.40;;;6.00;99.90;;;;;;4159268;28;20022;-69
2021/03/14 09:42:35;;;;;;;11.85;4.78;;;6.00;99.90;;;;;;4155877;28;20087;-69
2021/03/14 09:44:36;;;;;;;12.10;4.05;;;6.00;99.90;;;;;;4156651;28;20064;-69
2021/03/14 09:46:37;;;;;;;6.22;3.72;;;6.00;99.90;;;;;;4158063;28;20033;-69
2021/03/14 09:48:37;;;;;;;9.77;4.88;;;6.00;99.90;;;;;;4158831;28;20044;-69
2021/03/14 09:50:47;;;;;;;12.52;5.80;;;6.00;99.90;;;;;;4159266;28;20569;-71
2021/03/14 09:52:48;;;;;;;9.50;4.20;;;6.00;99.90;;;;;;4157623;28;20114;-69
2021/03/14 09:54:51;;;;;;;10.02;4.22;;;6.10;99.90;;;;;;4138320;28;20417;-69
2021/03/14 09:56:56;;;;;;;9.38;4.38;;;6.10;99.90;;;;;;4157156;28;20026;-69
2021/03/14 09:59:02;;;;;;;8.95;4.40;;;6.10;99.90;;;;;;4157318;28;20663;-73
2021/03/14 10:01:04;;;;;;;15.35;4.57;;;6.20;99.90;;;;;;4156912;28;20041;-69
2021/03/14 10:03:07;;;;;;;8.03;3.60;;;6.30;99.90;;;;;;4156421;28;20037;-69
2021/03/14 10:05:08;;;;;;;10.27;4.15;;;6.30;99.90;;;;;;4140591;28;20277;-69
2021/03/14 10:07:22;;;;;;;5.50;3.55;;;6.40;99.90;;;;;;4149693;28;20065;-69
2021/03/14 10:09:25;;;;;;;6.90;4.22;;;6.40;99.90;;;;;;4155370;28;20537;-70
2021/03/14 10:11:26;;;;;;;5.85;3.38;;;6.60;99.90;;;;;;4156358;28;20045;-70
2021/03/14 10:13:29;;;;;;;6.25;3.88;;;6.60;99.90;;;;;;4158753;28;20369;-70
2021/03/14 10:15:29;;;;;;;8.15;4.35;;;6.60;99.90;;;;;;4156536;28;20048;-70
2021/03/14 10:17:31;;;;;;;11.50;5.20;;;6.70;99.90;;;;;;4154899;28;20029;-69
2021/03/14 10:19:32;;;;;;;10.38;4.93;;;6.70;99.90;;;;;;4157279;28;20041;-69
2021/03/14 10:21:33;;;;;;;12.73;4.80;;;6.80;99.90;;;;;;4156291;28;20510;-69
2021/03/14 10:23:33;;;;;;;9.88;5.55;;;6.90;99.90;;;;;;4156462;28;20033;-68
2021/03/14 10:25:37;;;;;;;12.73;5.47;;;7.00;99.90;;;;;;4156566;28;20041;-69
2021/03/14 10:27:38;;;;;;;8.52;5.05;;;7.10;99.90;;;;;;4156558;28;20120;-68
2021/03/14 10:29:42;;;;;;;10.48;4.90;;;7.10;99.90;;;;;;4157334;28;20048;-69
2021/03/14 10:31:43;;;;;;;7.18;5.05;;;7.10;99.90;;;;;;4150312;28;20045;-69
2021/03/14 10:33:45;;;;;;;10.23;5.70;;;7.20;99.90;;;;;;4155453;28;20091;-69
2021/03/14 10:35:59;;;;;;;8.57;5.20;;;7.10;99.90;;;;;;4179610;28;20413;-69
2021/03/14 10:38:14;;;;;;;7.68;4.85;;;7.20;99.90;;;;;;4152790;28;20033;-70
2021/03/14 10:40:20;;;;;;;8.23;5.63;;;7.30;99.90;;;;;;4154645;28;20045;-70
2021/03/14 10:42:33;;;;;;;12.65;5.80;;;7.30;99.90;;;;;;4157071;28;20038;-69
2021/03/14 10:44:34;;;;;;;10.25;5.72;;;7.30;99.90;;;;;;4157224;28;20030;-70
2021/03/14 10:46:49;;;;;;;10.25;6.03;;;7.30;99.90;;;;;;4139206;28;20512;-70
2021/03/14 10:49:00;;;;;;;13.98;5.82;;;7.30;99.90;;;;;;4182353;28;20051;-69